sensor_id;sensor_type;location;lat;lon;timestamp;P1;durP1;ratioP1;P2;durP2;ratioP2
75459;SDS011;64039;53.060;9.342;2023-04-24T00:01:26;3.60;;;2.80;;
75459;SDS011;64039;53.060;9.342;2023-04-24T00:03:54;5.10;;;3.35;;
75459;SDS011;64039;53.060;9.342;2023-04-24T00:06:21;4.65;;;3.15;;
75459;SDS011;64039;53.060;9.342;2023-04-24T00:08:48;3.58;;;2.92;;
75459;SDS011;64039;53.060;9.342;2023-04-24T00:11:14;3.92;;;3.30;;
75459;SDS011;64039;53.060;9.342;2023-04-24T00:13:39;3.33;;;2.90;;
75459;SDS011;64039;53.060;9.342;2023-04-24T00:16:05;4.93;;;3.00;;
75459;SDS011;64039;53.060;9.342;2023-04-24T00:18:30;7.05;;;3.50;;
75459;SDS011;64039;53.060;9.342;2023-04-24T00:20:56;3.63;;;2.80;;
75459;SDS011;64039;53.060;9.342;2023-04-24T00:23:21;4.72;;;2.60;;
75459;SDS011;64039;53.060;9.342;2023-04-24T00:25:47;4.60;;;2.75;;
75459;SDS011;64039;53.060;9.342;2023-04-24T00:28:12;2.53;;;2.30;;
75459;SDS011;64039;53.060;9.342;2023-04-24T00:30:38;3.67;;;2.65;;
75459;SDS011;64039;53.060;9.342;2023-04-24T00:33:03;2.50;;;2.13;;
75459;SDS011;64039;53.060;9.342;2023-04-24T00:35:29;2.13;;;1.92;;
75459;SDS011;64039;53.060;9.342;2023-04-24T00:37:54;2.63;;;1.90;;
75459;SDS011;64039;53.060;9.342;2023-04-24T00:40:20;2.67;;;1.90;;
75459;SDS011;64039;53.060;9.342;2023-04-24T00:42:45;3.28;;;2.22;;
75459;SDS011;64039;53.060;9.342;2023-04-24T00:45:11;2.58;;;1.88;;
75459;SDS011;64039;53.060;9.342;2023-04-24T00:47:37;3.22;;;1.90;;
75459;SDS011;64039;53.060;9.342;2023-04-24T00:50:04;2.15;;;1.70;;
75459;SDS011;64039;53.060;9.342;2023-04-24T00:52:31;3.63;;;1.90;;
75459;SDS011;64039;53.060;9.342;2023-04-24T00:54:57;2.25;;;1.75;;
75459;SDS011;64039;53.060;9.342;2023-04-24T00:57:23;4.85;;;1.33;;
75459;SDS011;64039;53.060;9.342;2023-04-24T00:59:50;3.45;;;1.77;;
75459;SDS011;64039;53.060;9.342;2023-04-24T01:02:16;3.92;;;1.83;;
75459;SDS011;64039;53.060;9.342;2023-04-24T01:04:41;3.47;;;1.45;;
75459;SDS011;64039;53.060;9.342;2023-04-24T01:07:07;1.92;;;1.50;;
75459;SDS011;64039;53.060;9.342;2023-04-24T01:09:36;1.95;;;1.50;;
75459;SDS011;64039;53.060;9.342;2023-04-24T01:12:04;3.03;;;1.70;;
75459;SDS011;64039;53.060;9.342;2023-04-24T01:14:30;2.10;;;1.60;;
75459;SDS011;64039;53.060;9.342;2023-04-24T01:16:56;1.98;;;1.30;;
75459;SDS011;64039;53.060;9.342;2023-04-24T01:19:22;1.75;;;1.33;;
75459;SDS011;64039;53.060;9.342;2023-04-24T01:21:48;2.13;;;1.40;;
75459;SDS011;64039;53.060;9.342;2023-04-24T01:24:19;2.50;;;1.60;;
75459;SDS011;64039;53.060;9.342;2023-04-24T01:26:45;2.25;;;1.83;;
75459;SDS011;64039;53.060;9.342;2023-04-24T01:29:11;2.53;;;1.38;;
75459;SDS011;64039;53.060;9.342;2023-04-24T01:31:36;3.00;;;1.92;;
75459;SDS011;64039;53.060;9.342;2023-04-24T01:34:03;1.30;;;1.20;;
75459;SDS011;64039;53.060;9.342;2023-04-24T01:36:29;1.70;;;1.60;;
75459;SDS011;64039;53.060;9.342;2023-04-24T01:38:56;2.33;;;1.50;;
75459;SDS011;64039;53.060;9.342;2023-04-24T01:41:21;1.50;;;1.40;;
75459;SDS011;64039;53.060;9.342;2023-04-24T01:43:47;3.15;;;1.58;;
75459;SDS011;64039;53.060;9.342;2023-04-24T01:46:13;1.77;;;1.45;;
75459;SDS011;64039;53.060;9.342;2023-04-24T01:48:39;2.20;;;1.30;;
75459;SDS011;64039;53.060;9.342;2023-04-24T01:51:06;3.22;;;1.42;;
75459;SDS011;64039;53.060;9.342;2023-04-24T01:53:31;3.85;;;1.40;;
75459;SDS011;64039;53.060;9.342;2023-04-24T01:55:57;1.33;;;1.20;;
75459;SDS011;64039;53.060;9.342;2023-04-24T01:58:23;2.80;;;1.40;;
75459;SDS011;64039;53.060;9.342;2023-04-24T02:00:48;1.88;;;1.20;;
75459;SDS011;64039;53.060;9.342;2023-04-24T02:03:13;2.53;;;1.75;;
75459;SDS011;64039;53.060;9.342;2023-04-24T02:05:39;2.05;;;1.48;;
75459;SDS011;64039;53.060;9.342;2023-04-24T02:08:04;2.90;;;1.80;;
75459;SDS011;64039;53.060;9.342;2023-04-24T02:10:30;2.35;;;1.60;;
75459;SDS011;64039;53.060;9.342;2023-04-24T02:12:55;1.65;;;1.38;;
75459;SDS011;64039;53.060;9.342;2023-04-24T02:15:21;4.65;;;1.38;;
75459;SDS011;64039;53.060;9.342;2023-04-24T02:17:46;2.10;;;1.63;;
75459;SDS011;64039;53.060;9.342;2023-04-24T02:20:11;2.03;;;1.50;;
75459;SDS011;64039;53.060;9.342;2023-04-24T02:22:37;4.45;;;1.58;;
75459;SDS011;64039;53.060;9.342;2023-04-24T02:25:03;2.25;;;1.40;;
75459;SDS011;64039;53.060;9.342;2023-04-24T02:27:28;2.45;;;1.35;;
75459;SDS011;64039;53.060;9.342;2023-04-24T02:29:54;4.05;;;1.65;;
75459;SDS011;64039;53.060;9.342;2023-04-24T02:32:20;3.47;;;2.00;;
75459;SDS011;64039;53.060;9.342;2023-04-24T02:34:45;4.53;;;2.53;;
75459;SDS011;64039;53.060;9.342;2023-04-24T02:37:11;2.78;;;1.45;;
75459;SDS011;64039;53.060;9.342;2023-04-24T02:39:36;2.67;;;1.30;;
75459;SDS011;64039;53.060;9.342;2023-04-24T02:42:02;5.60;;;1.25;;
75459;SDS011;64039;53.060;9.342;2023-04-24T02:44:27;3.60;;;1.85;;
75459;SDS011;64039;53.060;9.342;2023-04-24T02:46:53;2.15;;;1.40;;
75459;SDS011;64039;53.060;9.342;2023-04-24T02:49:18;3.25;;;1.55;;
75459;SDS011;64039;53.060;9.342;2023-04-24T02:51:44;1.40;;;1.20;;
75459;SDS011;64039;53.060;9.342;2023-04-24T02:54:09;3.13;;;2.30;;
75459;SDS011;64039;53.060;9.342;2023-04-24T02:56:35;2.92;;;1.40;;
75459;SDS011;64039;53.060;9.342;2023-04-24T02:59:00;1.40;;;1.30;;
75459;SDS011;64039;53.060;9.342;2023-04-24T03:01:26;2.47;;;1.40;;
75459;SDS011;64039;53.060;9.342;2023-04-24T03:03:51;1.90;;;1.30;;
75459;SDS011;64039;53.060;9.342;2023-04-24T03:06:17;1.70;;;1.33;;
75459;SDS011;64039;53.060;9.342;2023-04-24T03:08:42;3.38;;;1.52;;
75459;SDS011;64039;53.060;9.342;2023-04-24T03:11:08;2.83;;;1.40;;
75459;SDS011;64039;53.060;9.342;2023-04-24T03:13:33;1.60;;;1.13;;
75459;SDS011;64039;53.060;9.342;2023-04-24T03:15:58;3.05;;;1.38;;
75459;SDS011;64039;53.060;9.342;2023-04-24T03:18:24;1.42;;;1.33;;
75459;SDS011;64039;53.060;9.342;2023-04-24T03:20:50;2.33;;;1.58;;
75459;SDS011;64039;53.060;9.342;2023-04-24T03:23:15;1.15;;;1.05;;
75459;SDS011;64039;53.060;9.342;2023-04-24T03:25:41;1.92;;;1.27;;
75459;SDS011;64039;53.060;9.342;2023-04-24T03:28:07;1.20;;;1.10;;
75459;SDS011;64039;53.060;9.342;2023-04-24T03:30:33;2.53;;;1.15;;
75459;SDS011;64039;53.060;9.342;2023-04-24T03:32:58;1.80;;;1.13;;
75459;SDS011;64039;53.060;9.342;2023-04-24T03:35:24;3.85;;;1.23;;
75459;SDS011;64039;53.060;9.342;2023-04-24T03:37:50;2.10;;;0.98;;
75459;SDS011;64039;53.060;9.342;2023-04-24T03:40:15;3.78;;;1.20;;
75459;SDS011;64039;53.060;9.342;2023-04-24T03:42:40;2.08;;;1.10;;
75459;SDS011;64039;53.060;9.342;2023-04-24T03:45:06;1.42;;;1.00;;
75459;SDS011;64039;53.060;9.342;2023-04-24T03:47:32;3.55;;;1.10;;
75459;SDS011;64039;53.060;9.342;2023-04-24T03:49:57;1.25;;;0.90;;
75459;SDS011;64039;53.060;9.342;2023-04-24T03:52:23;2.45;;;2.25;;
75459;SDS011;64039;53.060;9.342;2023-04-24T03:54:48;1.38;;;0.85;;
75459;SDS011;64039;53.060;9.342;2023-04-24T03:57:14;1.85;;;1.10;;
75459;SDS011;64039;53.060;9.342;2023-04-24T03:59:39;2.03;;;0.98;;
75459;SDS011;64039;53.060;9.342;2023-04-24T04:02:05;2.53;;;1.00;;
75459;SDS011;64039;53.060;9.342;2023-04-24T04:04:30;1.00;;;0.88;;
75459;SDS011;64039;53.060;9.342;2023-04-24T04:06:56;2.10;;;1.48;;
75459;SDS011;64039;53.060;9.342;2023-04-24T04:09:21;2.28;;;1.08;;
75459;SDS011;64039;53.060;9.342;2023-04-24T04:11:47;1.20;;;0.95;;
75459;SDS011;64039;53.060;9.342;2023-04-24T04:14:13;3.80;;;0.88;;
75459;SDS011;64039;53.060;9.342;2023-04-24T04:16:38;2.97;;;2.00;;
75459;SDS011;64039;53.060;9.342;2023-04-24T04:19:04;4.45;;;2.45;;
75459;SDS011;64039;53.060;9.342;2023-04-24T04:21:29;1.50;;;0.80;;
75459;SDS011;64039;53.060;9.342;2023-04-24T04:23:56;2.90;;;0.70;;
75459;SDS011;64039;53.060;9.342;2023-04-24T04:26:21;2.75;;;1.13;;
75459;SDS011;64039;53.060;9.342;2023-04-24T04:28:50;1.65;;;0.85;;
75459;SDS011;64039;53.060;9.342;2023-04-24T04:31:16;1.20;;;0.70;;
75459;SDS011;64039;53.060;9.342;2023-04-24T04:33:42;2.13;;;0.90;;
75459;SDS011;64039;53.060;9.342;2023-04-24T04:36:07;2.67;;;0.90;;
75459;SDS011;64039;53.060;9.342;2023-04-24T04:38:33;3.58;;;1.50;;
75459;SDS011;64039;53.060;9.342;2023-04-24T04:41:00;2.03;;;1.20;;
75459;SDS011;64039;53.060;9.342;2023-04-24T04:43:25;2.38;;;1.00;;
75459;SDS011;64039;53.060;9.342;2023-04-24T04:45:52;0.98;;;0.70;;
75459;SDS011;64039;53.060;9.342;2023-04-24T04:48:17;2.28;;;0.90;;
75459;SDS011;64039;53.060;9.342;2023-04-24T04:50:43;1.15;;;0.88;;
75459;SDS011;64039;53.060;9.342;2023-04-24T04:53:09;1.10;;;0.80;;
75459;SDS011;64039;53.060;9.342;2023-04-24T04:55:35;1.52;;;1.15;;
75459;SDS011;64039;53.060;9.342;2023-04-24T04:58:01;1.52;;;1.00;;
75459;SDS011;64039;53.060;9.342;2023-04-24T05:00:27;1.92;;;1.08;;
75459;SDS011;64039;53.060;9.342;2023-04-24T05:02:54;2.83;;;1.25;;
75459;SDS011;64039;53.060;9.342;2023-04-24T05:05:19;1.80;;;1.15;;
75459;SDS011;64039;53.060;9.342;2023-04-24T05:07:45;2.28;;;1.00;;
75459;SDS011;64039;53.060;9.342;2023-04-24T05:10:10;4.38;;;1.65;;
75459;SDS011;64039;53.060;9.342;2023-04-24T05:12:36;3.53;;;2.17;;
75459;SDS011;64039;53.060;9.342;2023-04-24T05:15:02;2.08;;;1.30;;
75459;SDS011;64039;53.060;9.342;2023-04-24T05:17:28;1.77;;;1.38;;
75459;SDS011;64039;53.060;9.342;2023-04-24T05:19:53;1.70;;;1.55;;
75459;SDS011;64039;53.060;9.342;2023-04-24T05:22:19;1.95;;;1.50;;
75459;SDS011;64039;53.060;9.342;2023-04-24T05:24:46;2.25;;;1.40;;
75459;SDS011;64039;53.060;9.342;2023-04-24T05:27:11;2.67;;;1.50;;
75459;SDS011;64039;53.060;9.342;2023-04-24T05:29:37;2.28;;;1.60;;
75459;SDS011;64039;53.060;9.342;2023-04-24T05:32:02;2.65;;;1.60;;
75459;SDS011;64039;53.060;9.342;2023-04-24T05:34:28;3.33;;;1.92;;
75459;SDS011;64039;53.060;9.342;2023-04-24T05:36:53;3.35;;;1.70;;
75459;SDS011;64039;53.060;9.342;2023-04-24T05:39:19;2.65;;;1.52;;
75459;SDS011;64039;53.060;9.342;2023-04-24T05:41:45;4.75;;;1.83;;
75459;SDS011;64039;53.060;9.342;2023-04-24T05:44:10;3.83;;;1.58;;
75459;SDS011;64039;53.060;9.342;2023-04-24T05:46:36;2.80;;;1.95;;
75459;SDS011;64039;53.060;9.342;2023-04-24T05:49:01;2.85;;;2.03;;
75459;SDS011;64039;53.060;9.342;2023-04-24T05:51:27;3.08;;;2.03;;
75459;SDS011;64039;53.060;9.342;2023-04-24T05:53:53;2.92;;;2.10;;
75459;SDS011;64039;53.060;9.342;2023-04-24T05:56:18;3.05;;;2.30;;
75459;SDS011;64039;53.060;9.342;2023-04-24T05:58:45;2.60;;;2.00;;
75459;SDS011;64039;53.060;9.342;2023-04-24T06:01:11;3.40;;;2.40;;
75459;SDS011;64039;53.060;9.342;2023-04-24T06:03:37;3.63;;;2.38;;
75459;SDS011;64039;53.060;9.342;2023-04-24T06:06:03;4.32;;;2.78;;
75459;SDS011;64039;53.060;9.342;2023-04-24T06:08:29;3.35;;;2.58;;
75459;SDS011;64039;53.060;9.342;2023-04-24T06:10:54;5.45;;;3.28;;
75459;SDS011;64039;53.060;9.342;2023-04-24T06:13:20;4.50;;;3.08;;
75459;SDS011;64039;53.060;9.342;2023-04-24T06:15:45;4.22;;;3.08;;
75459;SDS011;64039;53.060;9.342;2023-04-24T06:18:11;7.22;;;3.50;;
75459;SDS011;64039;53.060;9.342;2023-04-24T06:20:37;7.03;;;3.55;;
75459;SDS011;64039;53.060;9.342;2023-04-24T06:23:03;7.85;;;4.60;;
75459;SDS011;64039;53.060;9.342;2023-04-24T06:25:28;6.55;;;3.85;;
75459;SDS011;64039;53.060;9.342;2023-04-24T06:27:54;5.93;;;4.28;;
75459;SDS011;64039;53.060;9.342;2023-04-24T06:30:20;5.15;;;3.90;;
75459;SDS011;64039;53.060;9.342;2023-04-24T06:32:46;5.88;;;4.30;;
75459;SDS011;64039;53.060;9.342;2023-04-24T06:35:11;6.28;;;4.30;;
75459;SDS011;64039;53.060;9.342;2023-04-24T06:37:39;8.52;;;3.83;;
75459;SDS011;64039;53.060;9.342;2023-04-24T06:40:07;5.97;;;3.90;;
75459;SDS011;64039;53.060;9.342;2023-04-24T06:42:33;5.30;;;3.35;;
75459;SDS011;64039;53.060;9.342;2023-04-24T06:45:00;4.22;;;3.50;;
75459;SDS011;64039;53.060;9.342;2023-04-24T06:47:27;5.18;;;4.13;;
75459;SDS011;64039;53.060;9.342;2023-04-24T06:49:52;5.65;;;4.30;;
75459;SDS011;64039;53.060;9.342;2023-04-24T06:52:18;6.93;;;4.20;;
75459;SDS011;64039;53.060;9.342;2023-04-24T06:54:44;5.43;;;4.47;;
75459;SDS011;64039;53.060;9.342;2023-04-24T06:57:09;6.03;;;4.63;;
75459;SDS011;64039;53.060;9.342;2023-04-24T06:59:35;7.05;;;4.90;;
75459;SDS011;64039;53.060;9.342;2023-04-24T07:02:01;8.02;;;5.10;;
75459;SDS011;64039;53.060;9.342;2023-04-24T07:04:26;9.30;;;5.82;;
75459;SDS011;64039;53.060;9.342;2023-04-24T07:06:53;7.13;;;5.72;;
75459;SDS011;64039;53.060;9.342;2023-04-24T07:09:23;7.40;;;5.70;;
75459;SDS011;64039;53.060;9.342;2023-04-24T07:11:50;9.15;;;6.57;;
75459;SDS011;64039;53.060;9.342;2023-04-24T07:14:17;9.73;;;6.30;;
75459;SDS011;64039;53.060;9.342;2023-04-24T07:16:43;8.27;;;6.35;;
75459;SDS011;64039;53.060;9.342;2023-04-24T07:19:08;8.52;;;5.88;;
75459;SDS011;64039;53.060;9.342;2023-04-24T07:21:34;9.10;;;6.90;;
75459;SDS011;64039;53.060;9.342;2023-04-24T07:23:59;10.25;;;6.40;;
75459;SDS011;64039;53.060;9.342;2023-04-24T07:26:25;8.38;;;6.10;;
75459;SDS011;64039;53.060;9.342;2023-04-24T07:28:51;9.05;;;6.03;;
75459;SDS011;64039;53.060;9.342;2023-04-24T07:31:17;7.72;;;6.13;;
75459;SDS011;64039;53.060;9.342;2023-04-24T07:33:42;8.52;;;6.18;;
75459;SDS011;64039;53.060;9.342;2023-04-24T07:36:08;7.25;;;5.65;;
75459;SDS011;64039;53.060;9.342;2023-04-24T07:38:40;7.40;;;5.90;;
75459;SDS011;64039;53.060;9.342;2023-04-24T07:41:06;7.85;;;5.55;;
75459;SDS011;64039;53.060;9.342;2023-04-24T07:43:31;9.25;;;5.85;;
75459;SDS011;64039;53.060;9.342;2023-04-24T07:45:56;10.75;;;7.50;;
75459;SDS011;64039;53.060;9.342;2023-04-24T07:48:22;7.10;;;5.18;;
75459;SDS011;64039;53.060;9.342;2023-04-24T07:50:49;7.72;;;5.82;;
75459;SDS011;64039;53.060;9.342;2023-04-24T07:53:15;10.10;;;5.85;;
75459;SDS011;64039;53.060;9.342;2023-04-24T07:55:40;8.68;;;6.13;;
75459;SDS011;64039;53.060;9.342;2023-04-24T07:58:06;7.72;;;5.78;;
75459;SDS011;64039;53.060;9.342;2023-04-24T08:00:31;8.90;;;5.90;;
75459;SDS011;64039;53.060;9.342;2023-04-24T08:02:57;8.35;;;6.07;;
75459;SDS011;64039;53.060;9.342;2023-04-24T08:05:22;8.88;;;6.20;;
75459;SDS011;64039;53.060;9.342;2023-04-24T08:07:50;8.60;;;6.63;;
75459;SDS011;64039;53.060;9.342;2023-04-24T08:10:15;8.52;;;6.32;;
75459;SDS011;64039;53.060;9.342;2023-04-24T08:12:41;10.63;;;7.20;;
75459;SDS011;64039;53.060;9.342;2023-04-24T08:15:07;9.00;;;7.00;;
75459;SDS011;64039;53.060;9.342;2023-04-24T08:17:33;8.23;;;6.35;;
75459;SDS011;64039;53.060;9.342;2023-04-24T08:20:00;9.65;;;7.03;;
75459;SDS011;64039;53.060;9.342;2023-04-24T08:22:29;8.55;;;6.50;;
75459;SDS011;64039;53.060;9.342;2023-04-24T08:24:55;12.40;;;7.10;;
75459;SDS011;64039;53.060;9.342;2023-04-24T08:27:22;10.45;;;6.97;;
75459;SDS011;64039;53.060;9.342;2023-04-24T08:29:48;11.13;;;7.07;;
75459;SDS011;64039;53.060;9.342;2023-04-24T08:32:13;11.55;;;7.22;;
75459;SDS011;64039;53.060;9.342;2023-04-24T08:34:38;9.35;;;7.10;;
75459;SDS011;64039;53.060;9.342;2023-04-24T08:37:04;11.48;;;7.20;;
75459;SDS011;64039;53.060;9.342;2023-04-24T08:39:30;10.43;;;7.70;;
75459;SDS011;64039;53.060;9.342;2023-04-24T08:41:55;14.25;;;8.80;;
75459;SDS011;64039;53.060;9.342;2023-04-24T08:44:21;13.45;;;8.35;;
75459;SDS011;64039;53.060;9.342;2023-04-24T08:46:49;12.80;;;8.65;;
75459;SDS011;64039;53.060;9.342;2023-04-24T08:49:16;13.55;;;8.75;;
75459;SDS011;64039;53.060;9.342;2023-04-24T08:51:43;12.65;;;8.32;;
75459;SDS011;64039;53.060;9.342;2023-04-24T08:54:09;13.02;;;8.68;;
75459;SDS011;64039;53.060;9.342;2023-04-24T08:56:37;14.98;;;9.63;;
75459;SDS011;64039;53.060;9.342;2023-04-24T08:59:05;12.18;;;8.00;;
75459;SDS011;64039;53.060;9.342;2023-04-24T09:01:32;14.40;;;8.75;;
75459;SDS011;64039;53.060;9.342;2023-04-24T09:03:58;15.32;;;8.90;;
75459;SDS011;64039;53.060;9.342;2023-04-24T09:06:27;17.05;;;9.52;;
75459;SDS011;64039;53.060;9.342;2023-04-24T09:08:53;16.75;;;9.35;;
75459;SDS011;64039;53.060;9.342;2023-04-24T09:11:20;13.02;;;9.25;;
75459;SDS011;64039;53.060;9.342;2023-04-24T09:13:48;13.77;;;8.80;;
75459;SDS011;64039;53.060;9.342;2023-04-24T09:16:14;12.45;;;9.23;;
75459;SDS011;64039;53.060;9.342;2023-04-24T09:18:40;13.07;;;9.00;;
75459;SDS011;64039;53.060;9.342;2023-04-24T09:21:09;13.43;;;9.35;;
75459;SDS011;64039;53.060;9.342;2023-04-24T09:23:35;11.55;;;8.35;;
75459;SDS011;64039;53.060;9.342;2023-04-24T09:26:01;14.35;;;9.00;;
75459;SDS011;64039;53.060;9.342;2023-04-24T09:28:34;13.00;;;9.15;;
75459;SDS011;64039;53.060;9.342;2023-04-24T09:31:05;12.20;;;8.32;;
75459;SDS011;64039;53.060;9.342;2023-04-24T09:33:33;15.45;;;9.38;;
75459;SDS011;64039;53.060;9.342;2023-04-24T09:35:58;12.75;;;8.52;;
75459;SDS011;64039;53.060;9.342;2023-04-24T09:38:34;12.50;;;8.95;;
75459;SDS011;64039;53.060;9.342;2023-04-24T09:41:12;12.80;;;8.65;;
75459;SDS011;64039;53.060;9.342;2023-04-24T09:43:38;12.88;;;9.10;;
75459;SDS011;64039;53.060;9.342;2023-04-24T09:46:05;11.93;;;8.07;;
75459;SDS011;64039;53.060;9.342;2023-04-24T09:48:35;13.57;;;8.57;;
75459;SDS011;64039;53.060;9.342;2023-04-24T09:51:03;15.18;;;8.40;;
75459;SDS011;64039;53.060;9.342;2023-04-24T09:53:31;12.65;;;8.10;;
75459;SDS011;64039;53.060;9.342;2023-04-24T09:56:07;12.52;;;8.63;;
75459;SDS011;64039;53.060;9.342;2023-04-24T09:58:37;11.20;;;7.60;;
75459;SDS011;64039;53.060;9.342;2023-04-24T10:01:04;11.85;;;7.85;;
75459;SDS011;64039;53.060;9.342;2023-04-24T10:03:30;11.63;;;7.38;;
75459;SDS011;64039;53.060;9.342;2023-04-24T10:05:59;9.38;;;6.65;;
75459;SDS011;64039;53.060;9.342;2023-04-24T10:08:25;12.50;;;7.45;;
75459;SDS011;64039;53.060;9.342;2023-04-24T10:10:51;9.23;;;6.22;;
75459;SDS011;64039;53.060;9.342;2023-04-24T10:13:17;8.05;;;5.85;;
75459;SDS011;64039;53.060;9.342;2023-04-24T10:15:43;7.47;;;5.68;;
75459;SDS011;64039;53.060;9.342;2023-04-24T10:18:09;9.50;;;5.72;;
75459;SDS011;64039;53.060;9.342;2023-04-24T10:20:36;8.40;;;5.70;;
75459;SDS011;64039;53.060;9.342;2023-04-24T10:23:05;9.55;;;5.50;;
75459;SDS011;64039;53.060;9.342;2023-04-24T10:25:31;8.50;;;5.57;;
75459;SDS011;64039;53.060;9.342;2023-04-24T10:27:59;9.27;;;5.25;;
75459;SDS011;64039;53.060;9.342;2023-04-24T10:30:29;7.00;;;5.28;;
75459;SDS011;64039;53.060;9.342;2023-04-24T10:32:55;8.52;;;5.30;;
75459;SDS011;64039;53.060;9.342;2023-04-24T10:35:21;7.03;;;4.97;;
75459;SDS011;64039;53.060;9.342;2023-04-24T10:37:53;6.57;;;4.93;;
75459;SDS011;64039;53.060;9.342;2023-04-24T10:40:26;6.32;;;5.13;;
75459;SDS011;64039;53.060;9.342;2023-04-24T10:42:54;10.10;;;6.10;;
75459;SDS011;64039;53.060;9.342;2023-04-24T10:45:22;11.73;;;6.28;;
75459;SDS011;64039;53.060;9.342;2023-04-24T10:47:52;8.38;;;5.70;;
75459;SDS011;64039;53.060;9.342;2023-04-24T10:50:26;9.27;;;6.00;;
75459;SDS011;64039;53.060;9.342;2023-04-24T10:52:55;7.75;;;5.78;;
75459;SDS011;64039;53.060;9.342;2023-04-24T10:58:41;8.15;;;5.80;;
75459;SDS011;64039;53.060;9.342;2023-04-24T11:01:32;7.80;;;5.97;;
75459;SDS011;64039;53.060;9.342;2023-04-24T11:03:58;6.97;;;5.00;;
75459;SDS011;64039;53.060;9.342;2023-04-24T11:06:28;8.98;;;5.60;;
75459;SDS011;64039;53.060;9.342;2023-04-24T11:09:02;7.82;;;5.10;;
75459;SDS011;64039;53.060;9.342;2023-04-24T11:11:34;6.20;;;5.22;;
75459;SDS011;64039;53.060;9.342;2023-04-24T11:14:02;8.15;;;5.00;;
75459;SDS011;64039;53.060;9.342;2023-04-24T11:16:32;7.20;;;5.28;;
75459;SDS011;64039;53.060;9.342;2023-04-24T11:19:09;5.60;;;4.10;;
75459;SDS011;64039;53.060;9.342;2023-04-24T11:24:23;4.40;;;3.58;;
75459;SDS011;64039;53.060;9.342;2023-04-24T11:27:01;5.97;;;3.85;;
75459;SDS011;64039;53.060;9.342;2023-04-24T11:29:41;4.43;;;3.45;;
75459;SDS011;64039;53.060;9.342;2023-04-24T11:32:17;5.32;;;3.63;;
75459;SDS011;64039;53.060;9.342;2023-04-24T11:34:51;4.10;;;3.58;;
75459;SDS011;64039;53.060;9.342;2023-04-24T11:37:43;4.07;;;3.42;;
75459;SDS011;64039;53.060;9.342;2023-04-24T11:42:45;4.47;;;3.72;;
75459;SDS011;64039;53.060;9.342;2023-04-24T11:45:13;6.05;;;4.72;;
75459;SDS011;64039;53.060;9.342;2023-04-24T11:47:47;6.07;;;4.10;;
75459;SDS011;64039;53.060;9.342;2023-04-24T11:50:14;6.07;;;3.70;;
75459;SDS011;64039;53.060;9.342;2023-04-24T11:52:42;4.82;;;4.13;;
75459;SDS011;64039;53.060;9.342;2023-04-24T11:57:43;4.78;;;4.00;;
75459;SDS011;64039;53.060;9.342;2023-04-24T12:00:17;6.18;;;4.10;;
75459;SDS011;64039;53.060;9.342;2023-04-24T12:02:48;5.53;;;3.70;;
75459;SDS011;64039;53.060;9.342;2023-04-24T12:05:21;6.82;;;4.18;;
75459;SDS011;64039;53.060;9.342;2023-04-24T12:07:48;4.50;;;3.70;;
75459;SDS011;64039;53.060;9.342;2023-04-24T12:10:14;6.65;;;3.97;;
75459;SDS011;64039;53.060;9.342;2023-04-24T12:12:44;5.85;;;4.00;;
75459;SDS011;64039;53.060;9.342;2023-04-24T12:15:11;4.82;;;4.03;;
75459;SDS011;64039;53.060;9.342;2023-04-24T12:17:40;5.15;;;4.30;;
75459;SDS011;64039;53.060;9.342;2023-04-24T12:20:07;4.68;;;4.18;;
75459;SDS011;64039;53.060;9.342;2023-04-24T12:25:28;4.63;;;3.78;;
75459;SDS011;64039;53.060;9.342;2023-04-24T12:27:57;4.38;;;3.92;;
75459;SDS011;64039;53.060;9.342;2023-04-24T12:30:39;4.82;;;3.83;;
75459;SDS011;64039;53.060;9.342;2023-04-24T12:33:09;4.32;;;3.90;;
75459;SDS011;64039;53.060;9.342;2023-04-24T12:35:35;6.57;;;5.20;;
75459;SDS011;64039;53.060;9.342;2023-04-24T12:38:11;6.38;;;3.90;;
75459;SDS011;64039;53.060;9.342;2023-04-24T12:40:38;8.63;;;4.03;;
75459;SDS011;64039;53.060;9.342;2023-04-24T12:43:14;3.88;;;3.40;;
75459;SDS011;64039;53.060;9.342;2023-04-24T12:45:40;3.78;;;2.90;;
75459;SDS011;64039;53.060;9.342;2023-04-24T12:48:06;3.10;;;2.60;;
75459;SDS011;64039;53.060;9.342;2023-04-24T12:50:31;3.78;;;2.47;;
75459;SDS011;64039;53.060;9.342;2023-04-24T12:52:56;2.85;;;2.42;;
75459;SDS011;64039;53.060;9.342;2023-04-24T12:55:22;2.40;;;2.20;;
75459;SDS011;64039;53.060;9.342;2023-04-24T12:57:47;2.90;;;2.30;;
75459;SDS011;64039;53.060;9.342;2023-04-24T13:00:13;4.30;;;2.47;;
75459;SDS011;64039;53.060;9.342;2023-04-24T13:02:39;2.33;;;2.13;;
75459;SDS011;64039;53.060;9.342;2023-04-24T13:05:05;2.85;;;2.35;;
75459;SDS011;64039;53.060;9.342;2023-04-24T13:07:30;2.38;;;1.92;;
75459;SDS011;64039;53.060;9.342;2023-04-24T13:09:56;2.25;;;1.80;;
75459;SDS011;64039;53.060;9.342;2023-04-24T13:12:22;2.20;;;1.60;;
75459;SDS011;64039;53.060;9.342;2023-04-24T13:14:51;2.03;;;1.48;;
75459;SDS011;64039;53.060;9.342;2023-04-24T13:17:17;2.13;;;1.60;;
75459;SDS011;64039;53.060;9.342;2023-04-24T13:19:43;1.55;;;1.45;;
75459;SDS011;64039;53.060;9.342;2023-04-24T13:22:10;2.33;;;1.63;;
75459;SDS011;64039;53.060;9.342;2023-04-24T13:24:37;2.42;;;1.70;;
75459;SDS011;64039;53.060;9.342;2023-04-24T13:27:03;1.58;;;1.48;;
75459;SDS011;64039;53.060;9.342;2023-04-24T13:29:28;1.98;;;1.55;;
75459;SDS011;64039;53.060;9.342;2023-04-24T13:31:54;2.75;;;2.00;;
75459;SDS011;64039;53.060;9.342;2023-04-24T13:34:20;2.25;;;1.70;;
75459;SDS011;64039;53.060;9.342;2023-04-24T13:36:46;2.55;;;1.80;;
75459;SDS011;64039;53.060;9.342;2023-04-24T13:39:11;2.10;;;1.90;;
75459;SDS011;64039;53.060;9.342;2023-04-24T13:41:37;2.25;;;2.05;;
75459;SDS011;64039;53.060;9.342;2023-04-24T13:44:03;2.33;;;1.90;;
75459;SDS011;64039;53.060;9.342;2023-04-24T13:46:29;2.03;;;1.83;;
75459;SDS011;64039;53.060;9.342;2023-04-24T13:48:55;2.97;;;2.20;;
75459;SDS011;64039;53.060;9.342;2023-04-24T13:51:20;2.45;;;2.15;;
75459;SDS011;64039;53.060;9.342;2023-04-24T13:53:46;2.80;;;2.20;;
75459;SDS011;64039;53.060;9.342;2023-04-24T13:56:11;4.80;;;3.60;;
75459;SDS011;64039;53.060;9.342;2023-04-24T13:58:38;5.53;;;3.70;;
75459;SDS011;64039;53.060;9.342;2023-04-24T14:01:04;6.63;;;4.38;;
75459;SDS011;64039;53.060;9.342;2023-04-24T14:03:30;6.07;;;4.20;;
75459;SDS011;64039;53.060;9.342;2023-04-24T14:05:55;6.50;;;4.38;;
75459;SDS011;64039;53.060;9.342;2023-04-24T14:08:21;5.88;;;4.38;;
75459;SDS011;64039;53.060;9.342;2023-04-24T14:10:47;8.02;;;4.40;;
75459;SDS011;64039;53.060;9.342;2023-04-24T14:13:12;7.82;;;4.60;;
75459;SDS011;64039;53.060;9.342;2023-04-24T14:15:38;8.88;;;5.40;;
75459;SDS011;64039;53.060;9.342;2023-04-24T14:18:03;5.32;;;4.55;;
75459;SDS011;64039;53.060;9.342;2023-04-24T14:20:29;7.70;;;4.80;;
75459;SDS011;64039;53.060;9.342;2023-04-24T14:22:55;9.20;;;5.75;;
75459;SDS011;64039;53.060;9.342;2023-04-24T14:25:24;9.23;;;4.70;;
75459;SDS011;64039;53.060;9.342;2023-04-24T14:27:50;8.43;;;4.65;;
75459;SDS011;64039;53.060;9.342;2023-04-24T14:30:15;8.35;;;4.43;;
75459;SDS011;64039;53.060;9.342;2023-04-24T14:32:41;6.35;;;3.88;;
75459;SDS011;64039;53.060;9.342;2023-04-24T14:35:06;9.02;;;4.50;;
75459;SDS011;64039;53.060;9.342;2023-04-24T14:37:32;8.05;;;4.18;;
75459;SDS011;64039;53.060;9.342;2023-04-24T14:39:58;9.73;;;4.25;;
75459;SDS011;64039;53.060;9.342;2023-04-24T14:42:23;7.53;;;4.40;;
75459;SDS011;64039;53.060;9.342;2023-04-24T14:44:49;9.00;;;4.47;;
75459;SDS011;64039;53.060;9.342;2023-04-24T14:47:15;9.25;;;4.07;;
75459;SDS011;64039;53.060;9.342;2023-04-24T14:49:42;10.80;;;4.22;;
75459;SDS011;64039;53.060;9.342;2023-04-24T14:52:09;9.10;;;4.32;;
75459;SDS011;64039;53.060;9.342;2023-04-24T14:54:35;6.00;;;4.18;;
75459;SDS011;64039;53.060;9.342;2023-04-24T14:57:00;9.65;;;4.88;;